Time;durP1;ratioP1;P1;durP2;ratioP2;P2;SDS_P1;SDS_P2;PMS_P1;PMS_P2;Temp;Humidity;BMP_temperature;BMP_pressure;BME280_temperature;BME280_humidity;BME280_pressure;Samples;Min_cycle;Max_cycle;Signal;HPM_P1;HPM_P2
2022/08/13 00:00:52;;;;;;;20.38;19.17;;;14.80;99.90;;;;;;5043882;28;20362;-69
2022/08/13 00:03:19;;;;;;;20.80;19.50;;;14.80;99.90;;;;;;5052459;28;20044;-70
2022/08/13 00:06:10;;;;;;;20.85;19.65;;;14.70;99.90;;;;;;5042095;28;20159;-70
2022/08/13 00:08:55;;;;;;;21.20;19.58;;;14.70;99.90;;;;;;5035647;28;20140;-68
2022/08/13 00:14:33;;;;;;;19.80;18.58;;;14.80;99.90;;;;;;5061363;28;20056;-69
2022/08/13 00:17:08;;;;;;;19.67;18.52;;;14.70;99.90;;;;;;5056972;28;20063;-70
2022/08/13 00:19:39;;;;;;;21.33;19.93;;;14.50;99.90;;;;;;5050332;28;21218;-70
2022/08/13 00:22:08;;;;;;;20.75;19.38;;;14.40;99.90;;;;;;5053042;28;20063;-69
2022/08/13 00:24:57;;;;;;;19.95;18.80;;;14.40;99.90;;;;;;5042615;28;20125;-72
2022/08/13 00:27:26;;;;;;;20.27;19.02;;;14.40;99.90;;;;;;5043413;28;20060;-71
2022/08/13 00:29:56;;;;;;;20.95;19.38;;;14.40;99.90;;;;;;5046587;28;20045;-69
2022/08/13 00:32:31;;;;;;;19.98;18.75;;;14.40;99.90;;;;;;5042995;28;20032;-69
2022/08/13 00:35:00;;;;;;;20.55;19.25;;;14.40;99.90;;;;;;5050152;28;20044;-70
2022/08/13 00:37:28;;;;;;;21.08;19.73;;;14.30;99.90;;;;;;5051457;28;20205;-69
2022/08/13 00:40:00;;;;;;;20.70;19.25;;;14.30;99.90;;;;;;5053552;28;20056;-69
2022/08/13 00:42:44;;;;;;;20.58;19.38;;;14.20;99.90;;;;;;5062880;28;20040;-69
2022/08/13 00:45:17;;;;;;;21.52;20.23;;;14.10;99.90;;;;;;5064291;28;20127;-68
2022/08/13 00:50:35;;;;;;;21.08;19.77;;;14.10;99.90;;;;;;5059428;28;20613;-69
2022/08/13 00:53:04;;;;;;;20.80;19.50;;;14.10;99.90;;;;;;5040031;28;20045;-68
2022/08/13 00:55:31;;;;;;;20.65;19.45;;;14.00;99.90;;;;;;5047144;28;20625;-68
2022/08/13 00:57:58;;;;;;;21.25;20.02;;;14.10;99.90;;;;;;5043950;28;20041;-69
2022/08/13 01:00:28;;;;;;;21.17;19.92;;;14.00;99.90;;;;;;5044118;28;20044;-69
2022/08/13 01:02:56;;;;;;;20.65;19.48;;;14.10;99.90;;;;;;5043360;28;20044;-68
2022/08/13 01:05:43;;;;;;;20.92;19.67;;;14.20;99.90;;;;;;5040293;28;20051;-70
2022/08/13 01:08:16;;;;;;;20.02;18.77;;;14.00;99.90;;;;;;5046093;28;20053;-69
2022/08/13 01:10:46;;;;;;;21.45;20.02;;;13.90;99.90;;;;;;5046333;28;20542;-69
2022/08/13 01:13:28;;;;;;;21.15;19.35;;;13.80;99.90;;;;;;5040029;28;20048;-69
2022/08/13 01:15:59;;;;;;;20.33;19.23;;;13.80;99.90;;;;;;5046781;28;20041;-69
2022/08/13 01:18:28;;;;;;;20.58;19.27;;;13.80;99.90;;;;;;5035288;28;20068;-70
2022/08/13 01:21:08;;;;;;;20.15;19.05;;;13.80;99.90;;;;;;5045793;28;20051;-69
2022/08/13 01:23:36;;;;;;;21.27;19.65;;;13.90;99.90;;;;;;5040953;28;20072;-69
2022/08/13 01:26:06;;;;;;;20.25;19.13;;;13.90;99.90;;;;;;5052856;28;20090;-69
2022/08/13 01:28:38;;;;;;;20.50;19.00;;;13.80;99.90;;;;;;5040390;28;20422;-70
2022/08/13 01:31:10;;;;;;;20.58;19.38;;;13.70;99.90;;;;;;5038392;28;20116;-68
2022/08/13 01:33:47;;;;;;;20.60;19.15;;;13.70;99.90;;;;;;5044213;28;20059;-69
2022/08/13 01:36:20;;;;;;;19.90;18.73;;;13.70;99.90;;;;;;5041350;28;20036;-69
2022/08/13 01:39:07;;;;;;;20.65;19.52;;;13.70;99.90;;;;;;5043596;28;20163;-68
2022/08/13 01:41:48;;;;;;;20.60;19.38;;;13.70;99.90;;;;;;5040971;28;20115;-69
2022/08/13 01:44:22;;;;;;;20.73;19.42;;;13.60;99.90;;;;;;5046208;28;20053;-69
2022/08/13 01:53:11;;;;;;;19.83;18.75;;;13.50;99.90;;;;;;5069558;28;20131;-68
2022/08/13 01:55:44;;;;;;;20.60;19.35;;;13.70;99.90;;;;;;5063353;28;20052;-67
2022/08/13 01:58:31;;;;;;;20.00;18.90;;;13.60;99.90;;;;;;5051274;28;20037;-68
2022/08/13 02:01:02;;;;;;;20.70;19.40;;;13.60;99.90;;;;;;5058148;28;20045;-68
2022/08/13 02:03:36;;;;;;;20.02;18.92;;;13.50;99.90;;;;;;5052989;28;20332;-68
2022/08/13 02:06:07;;;;;;;21.38;20.05;;;13.50;99.90;;;;;;5050464;28;20133;-69
2022/08/13 02:08:56;;;;;;;22.17;20.30;;;13.40;99.90;;;;;;5051007;28;20546;-68
2022/08/13 02:11:24;;;;;;;20.52;19.05;;;13.30;99.90;;;;;;5048448;28;20045;-68
2022/08/13 02:13:55;;;;;;;20.58;19.38;;;13.30;99.90;;;;;;5047301;28;20045;-69
2022/08/13 02:16:29;;;;;;;20.38;19.17;;;13.40;99.90;;;;;;5048419;28;20045;-70
2022/08/13 02:19:00;;;;;;;20.15;18.95;;;13.30;99.90;;;;;;5051005;28;20710;-69
2022/08/13 02:21:31;;;;;;;19.85;18.65;;;13.50;99.90;;;;;;5049723;28;20136;-69
2022/08/13 02:24:13;;;;;;;19.85;18.55;;;13.60;99.90;;;;;;5041523;28;20052;-69
2022/08/13 02:26:47;;;;;;;20.02;18.83;;;13.40;99.90;;;;;;5045137;28;20075;-70
2022/08/13 02:29:22;;;;;;;20.92;19.40;;;13.40;99.90;;;;;;5045636;28;20139;-69
2022/08/13 02:31:50;;;;;;;19.98;18.83;;;13.30;99.90;;;;;;5045573;28;20450;-69
2022/08/13 02:34:39;;;;;;;20.92;19.63;;;13.30;99.90;;;;;;5046230;28;21323;-68
2022/08/13 02:37:07;;;;;;;20.98;19.08;;;13.30;99.90;;;;;;5050580;28;20411;-70
2022/08/13 02:39:54;;;;;;;21.00;19.27;;;13.20;99.90;;;;;;5061686;28;20137;-70
2022/08/13 02:42:22;;;;;;;19.80;18.67;;;13.20;99.90;;;;;;5059427;28;20290;-68
2022/08/13 02:44:50;;;;;;;20.55;19.25;;;13.20;99.90;;;;;;5055495;28;20486;-69
2022/08/13 02:47:21;;;;;;;20.80;19.60;;;13.20;99.90;;;;;;5054336;28;20112;-69
2022/08/13 02:50:09;;;;;;;20.17;18.88;;;13.20;99.90;;;;;;5062472;28;20588;-70
2022/08/13 02:52:41;;;;;;;20.73;19.23;;;13.20;99.90;;;;;;5034624;28;20816;-70
2022/08/13 02:55:27;;;;;;;20.30;19.20;;;13.20;99.90;;;;;;5041266;28;20047;-69
2022/08/13 02:58:01;;;;;;;21.35;20.05;;;13.10;99.90;;;;;;5047689;28;20173;-70
2022/08/13 03:00:30;;;;;;;20.30;18.90;;;13.10;99.90;;;;;;5046970;28;20609;-68
2022/08/13 03:02:57;;;;;;;20.40;19.20;;;13.00;99.90;;;;;;5040181;28;20087;-71
2022/08/13 03:05:30;;;;;;;19.50;18.40;;;13.00;99.90;;;;;;5045312;28;20688;-70
2022/08/13 03:08:17;;;;;;;19.77;18.65;;;12.90;99.90;;;;;;5045848;28;20133;-69
2022/08/13 03:11:04;;;;;;;20.05;18.85;;;12.90;99.90;;;;;;5038237;28;20491;-69
2022/08/13 03:13:37;;;;;;;20.20;19.10;;;12.90;99.90;;;;;;5046603;28;20520;-69
2022/08/13 03:16:15;;;;;;;20.52;19.27;;;12.90;99.90;;;;;;5047634;28;20071;-69
2022/08/13 03:18:46;;;;;;;20.33;19.17;;;12.90;99.90;;;;;;5065327;28;20040;-68
2022/08/13 03:21:22;;;;;;;20.15;19.02;;;12.90;99.90;;;;;;5049293;28;20044;-69
2022/08/13 03:24:19;;;;;;;20.02;18.90;;;12.80;99.90;;;;;;5050892;28;20498;-68
2022/08/13 03:26:59;;;;;;;20.27;19.13;;;12.80;99.90;;;;;;5045232;28;20040;-68
2022/08/13 03:29:27;;;;;;;20.90;19.70;;;12.80;99.90;;;;;;5040023;28;20048;-69
2022/08/13 03:32:14;;;;;;;20.33;19.23;;;12.80;99.90;;;;;;5046731;28;20044;-69
2022/08/13 03:34:43;;;;;;;20.40;19.20;;;12.80;99.90;;;;;;5045417;28;20052;-68
2022/08/13 03:37:11;;;;;;;20.58;19.27;;;12.80;99.90;;;;;;5046082;28;20135;-68
2022/08/13 03:39:40;;;;;;;19.92;18.73;;;12.70;99.90;;;;;;5006434;28;1036920;-69
2022/08/13 03:42:11;;;;;;;19.70;18.50;;;12.80;99.90;;;;;;5048274;28;20041;-68
2022/08/13 03:44:56;;;;;;;19.58;18.33;;;13.00;99.90;;;;;;5029229;28;20045;-68
2022/08/13 03:47:23;;;;;;;18.98;17.88;;;12.90;99.90;;;;;;5022090;28;20427;-69
2022/08/13 03:50:03;;;;;;;19.73;18.52;;;12.90;99.90;;;;;;5038617;28;20057;-69
2022/08/13 03:52:33;;;;;;;20.42;19.20;;;12.80;99.90;;;;;;5026412;28;20265;-69
2022/08/13 03:55:09;;;;;;;20.73;19.38;;;12.80;99.90;;;;;;5051968;28;20295;-69
2022/08/13 03:57:44;;;;;;;19.73;18.70;;;12.80;99.90;;;;;;4999736;28;20171;-69
2022/08/13 04:00:34;;;;;;;20.90;19.40;;;12.80;99.90;;;;;;5016499;28;20050;-68
2022/08/13 04:03:22;;;;;;;19.73;18.63;;;12.60;99.90;;;;;;5027854;28;20037;-70
2022/08/13 04:05:54;;;;;;;20.60;19.30;;;12.60;99.90;;;;;;5036901;28;20064;-67
2022/08/13 04:08:28;;;;;;;19.48;18.25;;;12.50;99.90;;;;;;5031770;28;20499;-69
2022/08/13 04:10:57;;;;;;;20.05;18.85;;;12.50;99.90;;;;;;5027073;28;20261;-69
2022/08/13 04:13:26;;;;;;;20.33;18.75;;;12.60;99.90;;;;;;5003983;28;20123;-68
2022/08/13 04:16:20;;;;;;;18.83;17.73;;;12.70;99.90;;;;;;5008180;28;20229;-69
2022/08/13 04:18:56;;;;;;;18.92;17.92;;;12.90;99.90;;;;;;5006985;28;20037;-69
2022/08/13 04:21:28;;;;;;;19.15;18.02;;;12.80;99.90;;;;;;4995532;28;20049;-70
2022/08/13 04:23:57;;;;;;;21.33;20.08;;;12.80;99.90;;;;;;5014928;28;20314;-67
2022/08/13 04:26:26;;;;;;;21.92;20.63;;;12.80;99.90;;;;;;5014805;28;20041;-69
2022/08/13 04:29:04;;;;;;;21.48;20.08;;;12.80;99.90;;;;;;5032549;28;20626;-69
2022/08/13 04:31:31;;;;;;;20.88;19.60;;;13.00;99.90;;;;;;5030326;28;20037;-69
2022/08/13 04:34:15;;;;;;;20.83;19.60;;;13.00;99.90;;;;;;5016979;28;20124;-69
2022/08/13 04:37:03;;;;;;;21.83;20.60;;;12.90;99.90;;;;;;5018422;28;20194;-69
2022/08/13 04:39:30;;;;;;;22.27;20.98;;;12.80;99.90;;;;;;5051659;28;20097;-69
2022/08/13 04:42:17;;;;;;;22.20;20.90;;;12.80;99.90;;;;;;5054347;28;20196;-67
2022/08/13 04:44:59;;;;;;;21.42;20.05;;;12.80;99.90;;;;;;5049869;28;20045;-68
2022/08/13 04:47:30;;;;;;;21.67;20.35;;;12.80;99.90;;;;;;5044931;28;20052;-69
2022/08/13 04:49:57;;;;;;;22.27;20.63;;;12.90;99.90;;;;;;5048079;28;20068;-69
2022/08/13 04:52:25;;;;;;;21.08;19.83;;;12.80;99.90;;;;;;5060667;28;20647;-70
2022/08/13 04:54:56;;;;;;;21.17;19.88;;;12.90;99.90;;;;;;5037692;28;20047;-69
2022/08/13 04:57:23;;;;;;;22.42;20.83;;;12.90;99.90;;;;;;5064164;28;20105;-69
2022/08/13 05:00:11;;;;;;;21.80;20.60;;;13.00;99.90;;;;;;5062789;28;20043;-69
2022/08/13 05:02:40;;;;;;;22.60;21.30;;;13.00;99.90;;;;;;5042208;28;20394;-69
2022/08/13 05:05:11;;;;;;;22.92;21.27;;;13.10;99.90;;;;;;5044841;28;20460;-69
2022/08/13 05:07:47;;;;;;;22.13;20.80;;;13.20;99.90;;;;;;5043571;28;20406;-71
2022/08/13 05:10:21;;;;;;;21.75;20.48;;;13.20;99.90;;;;;;5041964;28;20053;-70
2022/08/13 05:13:03;;;;;;;22.15;20.63;;;13.30;99.90;;;;;;5043362;28;20132;-69
2022/08/13 05:15:39;;;;;;;21.60;20.15;;;13.40;99.90;;;;;;5054583;28;20049;-70
2022/08/13 05:18:17;;;;;;;21.95;20.52;;;13.40;99.90;;;;;;5049494;28;20055;-70
2022/08/13 05:21:01;;;;;;;21.08;19.88;;;13.50;99.90;;;;;;5050588;28;20028;-70
2022/08/13 05:23:36;;;;;;;21.77;20.48;;;13.60;99.90;;;;;;5052282;28;20127;-68
2022/08/13 05:26:25;;;;;;;21.55;20.17;;;13.70;99.90;;;;;;5049014;28;20051;-70
2022/08/13 05:29:06;;;;;;;21.58;20.23;;;13.80;99.90;;;;;;5050230;28;20137;-69
2022/08/13 05:31:34;;;;;;;21.90;20.70;;;14.10;99.90;;;;;;5050615;28;20105;-70
2022/08/13 05:34:21;;;;;;;21.83;20.60;;;14.20;99.90;;;;;;5051227;28;20447;-69
2022/08/13 05:36:47;;;;;;;22.27;20.83;;;14.20;99.90;;;;;;5047384;28;20040;-70
2022/08/13 05:39:34;;;;;;;22.35;21.10;;;14.20;99.90;;;;;;5063167;28;20044;-70
2022/08/13 05:42:10;;;;;;;22.52;21.08;;;14.40;99.90;;;;;;5064473;28;20044;-70
2022/08/13 05:44:37;;;;;;;22.33;21.02;;;14.50;99.90;;;;;;5041613;28;20552;-69
2022/08/13 05:47:06;;;;;;;23.35;22.02;;;14.70;99.90;;;;;;5061877;28;20504;-68
2022/08/13 05:49:33;;;;;;;23.95;22.45;;;15.00;99.90;;;;;;5059269;28;20041;-69
2022/08/13 05:52:20;;;;;;;23.33;21.98;;;15.20;99.90;;;;;;5058284;28;20097;-70
2022/08/13 05:55:11;;;;;;;;;;;15.20;99.90;;;;;;5060089;28;20162;-68
2022/08/13 05:57:57;;;;;;;23.45;22.05;;;15.40;99.90;;;;;;5065030;28;20373;-69
2022/08/13 06:03:24;;;;;;;22.90;21.60;;;15.50;99.90;;;;;;5066939;28;20047;-69
2022/08/13 06:06:14;;;;;;;22.98;21.38;;;15.70;99.90;;;;;;5060790;28;20127;-70
2022/08/13 06:08:49;;;;;;;23.42;21.95;;;15.80;99.90;;;;;;5057642;28;20122;-69
2022/08/13 06:11:18;;;;;;;22.70;21.30;;;16.00;99.90;;;;;;5067057;28;20455;-68
2022/08/13 06:14:05;;;;;;;23.63;22.17;;;16.20;99.90;;;;;;5060394;28;20589;-69
2022/08/13 06:16:34;;;;;;;23.70;22.20;;;16.40;99.90;;;;;;5047151;28;20036;-69
2022/08/13 06:19:25;;;;;;;23.92;22.45;;;16.70;99.90;;;;;;5059954;28;20121;-70
2022/08/13 06:22:00;;;;;;;24.95;23.45;;;17.10;99.90;;;;;;5058320;28;20122;-71
2022/08/13 06:24:32;;;;;;;25.63;23.92;;;17.30;99.90;;;;;;5042354;28;20052;-70
2022/08/13 06:27:04;;;;;;;25.50;23.85;;;17.50;99.90;;;;;;5045354;28;20041;-69
2022/08/13 06:29:43;;;;;;;24.70;23.33;;;17.80;99.90;;;;;;5060355;28;20072;-70
2022/08/13 06:32:18;;;;;;;24.92;23.30;;;18.40;99.90;;;;;;5072000;28;20044;-71
2022/08/13 06:35:05;;;;;;;25.45;23.98;;;18.90;99.90;;;;;;5064076;28;20068;-71
2022/08/13 06:37:42;;;;;;;24.48;23.08;;;19.70;99.90;;;;;;5044474;28;20560;-71
2022/08/13 06:40:22;;;;;;;25.25;23.63;;;20.30;99.90;;;;;;5049860;28;20049;-71
2022/08/13 06:43:00;;;;;;;25.30;23.42;;;21.00;99.90;;;;;;5064151;28;20094;-71
2022/08/13 06:45:30;;;;;;;25.35;23.85;;;21.80;99.90;;;;;;5046397;28;20127;-70
2022/08/13 06:48:01;;;;;;;24.38;23.08;;;22.30;99.90;;;;;;5062209;28;20032;-70
2022/08/13 06:50:33;;;;;;;25.25;23.95;;;22.70;99.90;;;;;;5049179;28;20050;-70
2022/08/13 06:53:03;;;;;;;27.00;25.42;;;23.10;99.90;;;;;;5060011;28;20067;-70
2022/08/13 06:55:52;;;;;;;26.75;25.35;;;23.40;99.90;;;;;;5039047;28;20126;-70
2022/08/13 06:58:43;;;;;;;27.63;26.13;;;23.80;99.90;;;;;;5056392;28;20093;-70
2022/08/13 07:01:15;;;;;;;29.08;27.17;;;24.10;99.90;;;;;;5064214;28;20047;-70
2022/08/13 07:03:44;;;;;;;29.23;27.52;;;24.10;99.90;;;;;;5065300;28;20465;-69
2022/08/13 07:06:26;;;;;;;28.70;27.17;;;24.40;99.90;;;;;;5040618;28;20040;-68
2022/08/13 07:09:01;;;;;;;30.50;28.52;;;24.90;99.90;;;;;;5033316;28;20040;-70
2022/08/13 07:11:30;;;;;;;30.50;28.70;;;24.80;99.90;;;;;;5055391;28;20098;-69
2022/08/13 07:14:06;;;;;;;31.00;28.73;;;24.90;99.90;;;;;;5056541;28;20050;-70
2022/08/13 07:16:41;;;;;;;31.05;29.08;;;25.50;99.90;;;;;;5036199;28;20097;-70
2022/08/13 07:19:11;;;;;;;30.52;28.92;;;25.80;99.90;;;;;;5052809;28;20047;-72
2022/08/13 07:21:40;;;;;;;31.02;29.23;;;25.70;99.90;;;;;;5047167;28;20101;-69
2022/08/13 07:24:10;;;;;;;30.67;28.98;;;25.70;99.90;;;;;;5035539;28;20056;-69
2022/08/13 07:27:03;;;;;;;32.13;29.88;;;25.70;99.90;;;;;;5042364;28;20047;-69
2022/08/13 07:29:36;;;;;;;32.88;30.83;;;25.90;99.90;;;;;;5042543;28;20237;-70
2022/08/13 07:32:19;;;;;;;32.33;30.48;;;26.10;99.90;;;;;;5049083;28;20048;-72
2022/08/13 07:34:58;;;;;;;31.60;29.90;;;25.80;99.90;;;;;;5035482;28;20426;-71
2022/08/13 07:37:26;;;;;;;32.85;31.15;;;26.30;99.90;;;;;;5019524;28;20131;-70
2022/08/13 07:39:55;;;;;;;32.22;30.63;;;25.80;99.90;;;;;;5056550;28;20117;-70
2022/08/13 07:42:23;;;;;;;31.92;29.98;;;25.50;99.90;;;;;;5053431;28;20476;-70
2022/08/13 07:45:01;;;;;;;32.35;30.55;;;25.50;99.90;;;;;;5060306;28;20049;-69
2022/08/13 07:47:50;;;;;;;31.63;29.63;;;25.50;99.90;;;;;;5040636;28;20314;-70
2022/08/13 07:50:38;;;;;;;32.45;30.55;;;26.00;99.90;;;;;;5063225;28;20946;-71
2022/08/13 07:53:10;;;;;;;32.03;30.23;;;25.90;99.90;;;;;;5042231;28;20098;-71
2022/08/13 07:55:43;;;;;;;32.22;30.50;;;25.70;99.90;;;;;;5053154;28;20594;-72
2022/08/13 07:58:33;;;;;;;31.35;29.30;;;26.00;99.90;;;;;;5035317;28;20203;-70
2022/08/13 08:01:01;;;;;;;31.70;29.90;;;26.00;99.90;;;;;;5060316;28;20449;-70
2022/08/13 08:03:42;;;;;;;31.55;29.73;;;26.10;99.90;;;;;;5061935;28;20040;-70
2022/08/13 08:06:20;;;;;;;31.02;29.50;;;25.80;99.90;;;;;;5053090;28;20501;-70
2022/08/13 08:08:57;;;;;;;30.65;28.95;;;26.10;99.90;;;;;;5060253;28;20040;-70
2022/08/13 08:14:24;;;;;;;30.67;28.98;;;26.40;99.90;;;;;;5047722;28;20044;-68
2022/08/13 08:17:03;;;;;;;31.52;29.42;;;26.40;99.90;;;;;;5044993;28;20044;-69
2022/08/13 08:19:50;;;;;;;31.15;29.23;;;26.70;99.90;;;;;;5026146;28;20051;-72
2022/08/13 08:22:45;;;;;;;31.02;29.30;;;27.20;99.90;;;;;;5055376;28;20168;-72
2022/08/13 08:25:18;;;;;;;31.48;29.73;;;26.50;99.90;;;;;;5044980;28;20293;-72
2022/08/13 08:27:47;;;;;;;;;;;26.40;99.90;;;;;;5061770;28;20225;-71
2022/08/13 08:30:33;;;;;;;30.48;28.50;;;25.90;99.90;;;;;;5042859;28;19977;-71
2022/08/13 08:33:00;;;;;;;31.33;29.27;;;26.30;99.90;;;;;;5057637;28;20041;-70
2022/08/13 08:35:30;;;;;;;30.65;29.05;;;26.10;99.90;;;;;;5050951;28;20523;-71
2022/08/13 08:43:50;;;;;;;30.33;28.58;;;26.20;99.90;;;;;;5044345;28;20072;-71
2022/08/13 08:46:20;;;;;;;31.20;29.60;;;26.20;99.90;;;;;;5057974;28;20545;-71
2022/08/13 08:48:53;;;;;;;32.15;30.35;;;26.10;99.90;;;;;;5039794;28;20246;-71
2022/08/13 08:51:24;;;;;;;31.67;29.98;;;26.50;99.90;;;;;;5057710;28;21062;-70
2022/08/13 08:53:53;;;;;;;31.88;30.08;;;26.90;99.90;;;;;;5038254;28;20526;-71
2022/08/13 08:56:41;;;;;;;33.55;31.75;;;27.30;99.90;;;;;;5059342;28;20676;-71
2022/08/13 08:59:32;;;;;;;34.60;32.60;;;27.70;99.90;;;;;;5049886;28;20056;-70
2022/08/13 09:01:59;;;;;;;;;;;26.50;99.90;;;;;;5046501;28;20067;-70
2022/08/13 09:04:29;;;;;;;33.45;31.60;;;26.20;99.90;;;;;;5063945;28;19981;-69
2022/08/13 09:07:18;;;;;;;31.92;30.33;;;26.00;99.90;;;;;;5059709;28;20040;-70
2022/08/13 09:09:51;;;;;;;32.45;30.65;;;26.20;99.90;;;;;;5035865;28;20570;-71
2022/08/13 09:12:23;;;;;;;32.13;30.42;;;26.90;99.90;;;;;;5042600;28;20501;-70
2022/08/13 09:14:53;;;;;;;33.80;32.08;;;27.10;99.90;;;;;;5042936;28;20054;-70
2022/08/13 09:17:21;;;;;;;33.10;31.40;;;26.80;99.90;;;;;;5062963;28;20044;-70
2022/08/13 09:19:47;;;;;;;32.30;30.60;;;27.10;99.90;;;;;;5038907;28;20040;-70
2022/08/13 09:22:20;;;;;;;31.45;29.45;;;26.80;99.90;;;;;;5059427;28;20050;-71
2022/08/13 09:24:58;;;;;;;33.42;31.38;;;27.40;99.90;;;;;;5058952;28;20230;-70
2022/08/13 09:27:30;;;;;;;33.63;31.77;;;27.20;99.90;;;;;;5041960;28;20032;-71
2022/08/13 09:30:18;;;;;;;33.88;32.05;;;27.80;99.90;;;;;;5061514;28;20517;-69
2022/08/13 09:32:56;;;;;;;33.72;32.03;;;28.10;99.90;;;;;;5062050;28;20052;-70
2022/08/13 09:35:25;;;;;;;34.25;32.20;;;28.10;99.90;;;;;;5054476;28;20041;-71
2022/08/13 09:38:06;;;;;;;34.25;32.08;;;27.80;99.90;;;;;;5042948;28;20044;-71
2022/08/13 09:41:03;;;;;;;36.08;34.03;;;27.90;99.90;;;;;;5060874;28;20051;-71
2022/08/13 09:43:44;;;;;;;36.33;34.38;;;28.30;99.90;;;;;;5007626;28;20055;-71
2022/08/13 09:46:18;;;;;;;35.35;33.25;;;28.50;99.90;;;;;;5046930;28;20506;-71
2022/08/13 09:48:51;;;;;;;36.30;34.28;;;28.70;99.90;;;;;;5048745;28;20390;-71
2022/08/13 09:51:20;;;;;;;36.08;33.80;;;28.80;99.90;;;;;;5061902;28;20301;-70
2022/08/13 09:54:09;;;;;;;36.75;34.50;;;29.10;99.50;;;;;;5052071;28;20254;-74
2022/08/13 09:56:38;;;;;;;34.10;32.20;;;28.30;99.90;;;;;;5055596;28;20406;-70
2022/08/13 09:59:06;;;;;;;36.58;34.58;;;27.60;99.90;;;;;;5047830;28;20147;-72
2022/08/13 10:01:36;;;;;;;36.47;34.47;;;27.40;99.90;;;;;;5039089;28;20437;-73
2022/08/13 10:04:22;;;;;;;29.80;28.20;;;27.40;99.90;;;;;;5056341;28;20109;-71
2022/08/13 10:06:50;;;;;;;35.45;33.40;;;28.20;99.90;;;;;;5060368;28;20040;-70
2022/08/13 10:09:26;;;;;;;35.38;33.63;;;28.70;99.70;;;;;;5036555;28;20037;-71
2022/08/13 10:11:59;;;;;;;36.13;34.03;;;28.40;98.80;;;;;;5057305;28;20066;-69
2022/08/13 10:14:49;;;;;;;35.85;33.95;;;28.30;99.90;;;;;;5059479;28;20232;-69
2022/08/13 10:17:41;;;;;;;34.35;32.45;;;28.30;99.80;;;;;;5054844;28;20075;-71
2022/08/13 10:20:25;;;;;;;34.65;32.85;;;28.10;99.30;;;;;;5058042;28;20437;-70
2022/08/13 10:22:53;;;;;;;35.67;33.85;;;28.10;99.10;;;;;;5037623;28;20044;-73
2022/08/13 10:25:22;;;;;;;35.88;33.88;;;28.80;98.40;;;;;;5062821;28;20516;-72
2022/08/13 10:27:49;;;;;;;35.15;32.97;;;28.80;98.10;;;;;;5060594;28;20474;-72
2022/08/13 10:30:25;;;;;;;35.85;33.85;;;28.70;98.90;;;;;;5061459;28;20080;-72
2022/08/13 10:33:13;;;;;;;35.83;33.97;;;28.50;98.70;;;;;;5068391;28;20032;-72
2022/08/13 10:35:40;;;;;;;37.08;35.28;;;28.30;99.10;;;;;;5058969;28;20117;-72
2022/08/13 10:38:14;;;;;;;37.03;35.17;;;28.50;98.80;;;;;;5059186;28;20097;-70
2022/08/13 10:40:41;;;;;;;32.28;30.48;;;28.90;98.40;;;;;;5051806;28;20551;-72
2022/08/13 10:43:12;;;;;;;37.58;35.63;;;28.60;98.30;;;;;;5061491;28;20440;-72
2022/08/13 10:45:56;;;;;;;34.88;33.05;;;28.60;98.70;;;;;;5048647;28;20139;-73
2022/08/13 10:48:31;;;;;;;35.80;33.80;;;28.80;98.20;;;;;;5037573;28;20047;-72
2022/08/13 10:51:00;;;;;;;36.33;34.50;;;28.90;98.00;;;;;;5041866;28;20037;-73
2022/08/13 10:56:19;;;;;;;36.50;34.38;;;30.00;97.20;;;;;;5047074;28;20068;-73
2022/08/13 10:58:46;;;;;;;35.88;34.08;;;29.80;96.60;;;;;;5063380;28;20059;-70
2022/08/13 11:01:20;;;;;;;35.05;33.25;;;29.90;97.10;;;;;;5067389;28;20425;-71
2022/08/13 11:03:47;;;;;;;34.70;32.80;;;29.70;96.40;;;;;;5048457;28;20055;-71
2022/08/13 11:06:33;;;;;;;36.13;33.97;;;29.60;97.40;;;;;;5064686;28;20514;-72
2022/08/13 11:09:04;;;;;;;32.47;30.77;;;28.90;97.80;;;;;;5031220;28;20044;-72
2022/08/13 11:11:55;;;;;;;32.88;31.02;;;28.80;99.10;;;;;;5037831;28;20513;-72
2022/08/13 11:14:28;;;;;;;34.38;32.47;;;28.40;98.20;;;;;;5055326;28;20510;-72
2022/08/13 11:17:07;;;;;;;34.35;32.45;;;28.00;98.90;;;;;;5044476;28;20132;-71
2022/08/13 11:19:44;;;;;;;36.70;34.65;;;28.40;99.90;;;;;;5063186;28;20044;-70
2022/08/13 11:22:23;;;;;;;36.35;34.45;;;28.00;98.40;;;;;;5055405;28;20466;-71
2022/08/13 11:24:54;;;;;;;34.22;32.33;;;28.50;97.80;;;;;;5054483;28;20284;-71
2022/08/13 11:27:20;;;;;;;31.67;29.77;;;29.30;97.80;;;;;;5036933;28;20040;-71
2022/08/13 11:29:54;;;;;;;34.83;33.13;;;29.80;97.10;;;;;;5066701;28;20305;-70
2022/08/13 11:32:22;;;;;;;36.53;34.47;;;29.50;96.90;;;;;;5040820;28;20032;-72
2022/08/13 11:34:53;;;;;;;36.10;34.08;;;28.80;97.40;;;;;;5041285;28;20127;-71
2022/08/13 11:37:21;;;;;;;33.22;31.20;;;29.00;98.30;;;;;;5036387;28;20045;-71
2022/08/13 11:39:49;;;;;;;35.35;33.08;;;28.80;98.20;;;;;;5059911;28;20523;-70
2022/08/13 11:42:36;;;;;;;35.55;33.40;;;28.40;98.40;;;;;;5043129;28;20118;-69
2022/08/13 11:45:05;;;;;;;32.08;30.23;;;27.90;97.60;;;;;;5063434;28;20036;-70
2022/08/13 11:47:38;;;;;;;32.75;30.85;;;27.70;98.40;;;;;;5057621;28;20074;-69
2022/08/13 11:50:12;;;;;;;33.53;31.17;;;27.50;98.30;;;;;;5056301;28;20344;-71
2022/08/13 11:52:41;;;;;;;32.17;30.33;;;27.40;98.40;;;;;;5034836;28;20196;-70
2022/08/13 11:55:09;;;;;;;31.45;29.55;;;27.40;98.40;;;;;;5047287;28;20245;-71
2022/08/13 11:57:42;;;;;;;30.90;29.02;;;27.20;98.10;;;;;;5045073;28;20048;-69
2022/08/13 12:00:15;;;;;;;32.53;30.73;;;27.30;98.30;;;;;;5065407;28;20085;-70
2022/08/13 12:02:57;;;;;;;31.70;29.80;;;27.20;97.70;;;;;;5036413;28;20059;-71
2022/08/13 12:05:24;;;;;;;34.42;32.53;;;27.00;97.40;;;;;;5032123;28;20044;-70
2022/08/13 12:07:56;;;;;;;33.25;31.35;;;27.00;97.40;;;;;;5033749;28;20041;-71
2022/08/13 12:10:28;;;;;;;34.90;32.85;;;27.70;98.30;;;;;;5040494;28;20040;-72
2022/08/13 12:13:15;;;;;;;36.80;34.72;;;28.50;98.50;;;;;;5040795;28;20161;-72
2022/08/13 12:15:47;;;;;;;34.25;32.35;;;29.30;97.40;;;;;;5049133;28;20036;-71
2022/08/13 12:18:33;;;;;;;33.00;31.20;;;29.00;96.60;;;;;;5039477;28;20101;-70
2022/08/13 12:21:03;;;;;;;31.50;29.80;;;29.10;96.20;;;;;;5058841;28;20040;-71
2022/08/13 12:23:31;;;;;;;31.15;29.30;;;28.90;96.40;;;;;;5057203;28;20039;-71
2022/08/13 12:26:03;;;;;;;36.60;34.38;;;28.40;96.60;;;;;;5045899;28;20056;-70
2022/08/13 12:28:32;;;;;;;33.38;31.48;;;28.20;97.20;;;;;;5045551;28;20044;-70
2022/08/13 12:31:03;;;;;;;32.28;30.60;;;28.20;98.20;;;;;;5050832;28;20426;-71
2022/08/13 12:33:33;;;;;;;33.30;31.33;;;28.40;95.90;;;;;;5057253;28;20036;-71
2022/08/13 12:36:07;;;;;;;;;;;28.30;96.00;;;;;;5040094;28;20033;-70
2022/08/13 12:38:35;;;;;;;31.08;29.23;;;28.20;95.90;;;;;;5065875;28;20010;-69
2022/08/13 12:41:02;;;;;;;32.05;29.98;;;28.10;96.60;;;;;;5061507;28;20052;-71
2022/08/13 12:43:45;;;;;;;35.67;33.65;;;28.10;96.10;;;;;;5056971;28;20525;-71
2022/08/13 12:46:32;;;;;;;34.42;32.38;;;28.40;96.10;;;;;;5070067;28;20127;-72
2022/08/13 12:49:04;;;;;;;31.90;30.05;;;29.00;97.30;;;;;;5071487;28;20102;-72
2022/08/13 12:51:41;;;;;;;31.90;30.02;;;29.50;96.30;;;;;;5053899;28;20109;-71
2022/08/13 12:54:23;;;;;;;32.00;30.15;;;29.30;95.70;;;;;;5069770;28;20463;-70
2022/08/13 12:57:10;;;;;;;31.65;29.95;;;28.80;96.10;;;;;;5047176;28;20128;-71
2022/08/13 12:59:53;;;;;;;35.60;33.45;;;28.20;95.50;;;;;;5053511;28;21934;-72
2022/08/13 13:02:30;;;;;;;35.25;33.15;;;28.00;96.00;;;;;;5062595;28;20407;-71
2022/08/13 13:04:57;;;;;;;32.38;30.58;;;28.50;96.00;;;;;;5041359;28;20055;-71
2022/08/13 13:07:44;;;;;;;33.05;31.00;;;28.30;96.10;;;;;;5063084;28;20050;-71
2022/08/13 13:10:35;;;;;;;33.08;31.13;;;28.10;95.10;;;;;;5059757;28;20040;-72
2022/08/13 13:13:03;;;;;;;33.08;31.08;;;28.80;96.30;;;;;;5073215;28;20391;-72
2022/08/13 13:15:39;;;;;;;32.00;30.30;;;29.60;94.50;;;;;;5039827;28;20055;-72
2022/08/13 13:18:28;;;;;;;31.35;29.55;;;30.10;93.60;;;;;;5046911;28;20147;-72
2022/08/13 13:21:15;;;;;;;34.65;32.58;;;30.30;94.20;;;;;;5047436;28;20134;-71
2022/08/13 13:23:44;;;;;;;34.05;32.15;;;30.00;93.80;;;;;;5060224;28;20036;-72
2022/08/13 13:26:27;;;;;;;33.03;31.20;;;29.40;93.90;;;;;;5038960;28;20047;-72
2022/08/13 13:28:57;;;;;;;35.08;33.20;;;30.10;94.30;;;;;;5062497;28;20059;-72
2022/08/13 13:31:30;;;;;;;34.85;32.78;;;30.90;94.00;;;;;;5069903;28;20080;-72
2022/08/13 13:34:22;;;;;;;34.85;32.67;;;31.40;93.00;;;;;;5052010;28;20154;-73
2022/08/13 13:36:51;;;;;;;33.22;31.38;;;30.90;93.60;;;;;;5045870;28;20109;-71